Aurora, Maine
Current Conditions -  °F | °C
As of 8:53 PM on Saturday 25 Oct 2014 (Local Time) from KBGR Reporting Station
Broken Clouds Broken Clouds  
Wind Chill: 46°   Ceiling: 25000
Heat Index: 48°   Visibility: 10mi
Dew Point: 43°   Wind: 5mph
Humidity: 83%   Direction: 190°S
Pressure: 29.52"   Gusts: NA
Location:  44.85°N, 68.33°W
Report Text: KBGR 260053Z 19004KT 10SM SCT100 BKN250 09/06 A2952 RMK AO2 SLP995 T00890061
Loading
Personal Weather Stations






























Interactive Weather Map
Tropical Storm Tracking
New forecast layout! Learn more

10-Day Weather Forecast

Advertisements
Track Severe Weather on mobile